Airfield :
LOGIN :

Register | Disclaimer

   EN    FR    IT 

 










Legend :    VFR   Marginal VFR   IFR   Intensive IFR   Very Intensive IFR
Visi :
Ceiling :
>= 8 km
>= 3000ft
5 to 8 km
1000 to 3000 ft
1500m to 5 km
500 to 1000 ft
800 to 1500m
200 to 500 ft
< 800m
< 200 ft
Symbols :   Thunderstorms  Fog  Heavy snow  Heavy precipitations  Wind > 20 kt
SIGMETs :     Misc.  Thunderstorms  Icing  Turbulence  Mountain Waves  Volcanic Ashes







- Airport Elevation : 147 ft
- IATA code : DUS


EDDL - Düsseldorf Int.

CURRENT METAR :
  • 251220Z 30014KT 9999 -SHRA VCTS FEW012 SCT025CB 08/03 Q1022 TEMPO TSRA

EXPIRED METARs :
  • 251150Z 32013KT 290V350 9999 VCSH FEW020 SCT025CB 08/03 Q1022 RESHRA NOSIG
  • 251120Z 32017KT 290V350 9999 SHRA FEW020 BKN025CB 09/02 Q1022 BECMG NSW
  • 251050Z 32017G28KT 9999 FEW020CB 08/03 Q1022 RESHRA NOSIG
  • 251020Z 31021G34KT 280V340 7000 SHRA SCT011 BKN020CB 06/02 Q1022 BECMG NSW
  • 250950Z 30018KT 9999 -SHRA FEW011 SCT026TCU BKN036 07/02 Q1021 NOSIG
  • 250920Z 30019KT 9999 -SHRA FEW011 SCT026TCU 08/02 Q1021 NOSIG

TAF TAF EDDL
Valid from the 25 at 12:00 until the 26 at 18:00 UTC


251100Z 2512/2618 30015G25KT 9999 SCT025
TEMPO 2512/2517 32020G35KT SHRA BKN015CB
PROB30
TEMPO 2512/2516 3000 TSGS BKN013CB
BECMG 2517/2519 32012KT
BECMG 2520/2523 32007KT
TEMPO 2603/2608 BKN014
No reported NOTAMs for that airfield.



MET'MAP, your aeronautical weather chart ! - Copyright ORBIFLY December 2007 - Disclaimer

ORBIFLY MET'MAP TEAM :

Programming & Development : Alexandra Zaïnal
Concept & Development : Baudouin d'Aumeries
Co-Development & Prog : Marc-Olivier Méhu
Technical & hardware support : Manuel Goepfert

Contact : metmap@orbifly.com




SOURCES & CREDITS :

   NOAA